sensor_id;sensor_type;location;lat;lon;timestamp;P1;durP1;ratioP1;P2;durP2;ratioP2
35777;SDS011;21899;42.662;23.316;2022-09-09T00:00:43;18.02;;;11.77;;
35777;SDS011;21899;42.662;23.316;2022-09-09T00:03:16;13.45;;;11.02;;
35777;SDS011;21899;42.662;23.316;2022-09-09T00:08:46;15.45;;;11.65;;
35777;SDS011;21899;42.662;23.316;2022-09-09T00:11:43;18.85;;;11.63;;
35777;SDS011;21899;42.662;23.316;2022-09-09T00:14:45;15.40;;;11.15;;
35777;SDS011;21899;42.662;23.316;2022-09-09T00:17:12;19.30;;;11.68;;
35777;SDS011;21899;42.662;23.316;2022-09-09T00:19:56;16.67;;;11.85;;
35777;SDS011;21899;42.662;23.316;2022-09-09T00:22:28;16.65;;;11.55;;
35777;SDS011;21899;42.662;23.316;2022-09-09T00:25:02;14.93;;;11.52;;
35777;SDS011;21899;42.662;23.316;2022-09-09T00:27:44;16.48;;;11.50;;
35777;SDS011;21899;42.662;23.316;2022-09-09T00:30:17;15.35;;;12.00;;
35777;SDS011;21899;42.662;23.316;2022-09-09T00:33:22;13.35;;;11.52;;
35777;SDS011;21899;42.662;23.316;2022-09-09T00:35:51;15.90;;;11.05;;
35777;SDS011;21899;42.662;23.316;2022-09-09T00:41:15;19.07;;;13.13;;
35777;SDS011;21899;42.662;23.316;2022-09-09T00:43:47;21.23;;;13.43;;
35777;SDS011;21899;42.662;23.316;2022-09-09T00:46:28;16.00;;;12.88;;
35777;SDS011;21899;42.662;23.316;2022-09-09T00:51:51;19.63;;;12.90;;
35777;SDS011;21899;42.662;23.316;2022-09-09T01:02:26;17.73;;;13.70;;
35777;SDS011;21899;42.662;23.316;2022-09-09T01:04:56;21.67;;;12.93;;
35777;SDS011;21899;42.662;23.316;2022-09-09T01:07:29;20.48;;;12.65;;
35777;SDS011;21899;42.662;23.316;2022-09-09T01:09:56;20.27;;;12.65;;
35777;SDS011;21899;42.662;23.316;2022-09-09T01:12:25;18.35;;;12.60;;
35777;SDS011;21899;42.662;23.316;2022-09-09T01:15:10;14.07;;;11.48;;
35777;SDS011;21899;42.662;23.316;2022-09-09T01:23:17;19.35;;;12.93;;
35777;SDS011;21899;42.662;23.316;2022-09-09T01:28:31;15.50;;;12.13;;
35777;SDS011;21899;42.662;23.316;2022-09-09T01:31:00;15.30;;;12.35;;
35777;SDS011;21899;42.662;23.316;2022-09-09T01:33:29;18.60;;;13.82;;
35777;SDS011;21899;42.662;23.316;2022-09-09T01:36:06;19.90;;;12.77;;
35777;SDS011;21899;42.662;23.316;2022-09-09T01:38:35;16.48;;;12.57;;
35777;SDS011;21899;42.662;23.316;2022-09-09T01:41:02;18.13;;;12.23;;
35777;SDS011;21899;42.662;23.316;2022-09-09T01:43:27;17.80;;;12.23;;
35777;SDS011;21899;42.662;23.316;2022-09-09T01:45:54;22.17;;;13.43;;
35777;SDS011;21899;42.662;23.316;2022-09-09T01:48:23;17.45;;;12.75;;
35777;SDS011;21899;42.662;23.316;2022-09-09T01:50:50;20.83;;;13.25;;
35777;SDS011;21899;42.662;23.316;2022-09-09T01:53:17;16.65;;;12.90;;
35777;SDS011;21899;42.662;23.316;2022-09-09T02:06:55;15.23;;;12.63;;
35777;SDS011;21899;42.662;23.316;2022-09-09T02:09:25;17.58;;;12.85;;
35777;SDS011;21899;42.662;23.316;2022-09-09T02:11:56;17.45;;;13.35;;
35777;SDS011;21899;42.662;23.316;2022-09-09T02:14:30;15.68;;;12.88;;
35777;SDS011;21899;42.662;23.316;2022-09-09T02:17:03;18.55;;;13.77;;
35777;SDS011;21899;42.662;23.316;2022-09-09T02:19:36;20.55;;;13.88;;
35777;SDS011;21899;42.662;23.316;2022-09-09T02:22:11;20.42;;;14.57;;
35777;SDS011;21899;42.662;23.316;2022-09-09T02:24:37;19.15;;;14.48;;
35777;SDS011;21899;42.662;23.316;2022-09-09T02:27:05;22.75;;;12.82;;
35777;SDS011;21899;42.662;23.316;2022-09-09T02:29:38;17.08;;;13.90;;
35777;SDS011;21899;42.662;23.316;2022-09-09T02:32:14;18.75;;;13.82;;
35777;SDS011;21899;42.662;23.316;2022-09-09T02:34:47;17.83;;;13.48;;
35777;SDS011;21899;42.662;23.316;2022-09-09T02:39:46;22.33;;;13.63;;
35777;SDS011;21899;42.662;23.316;2022-09-09T02:42:11;17.77;;;12.57;;
35777;SDS011;21899;42.662;23.316;2022-09-09T02:44:39;15.82;;;12.80;;
35777;SDS011;21899;42.662;23.316;2022-09-09T02:50:02;17.73;;;12.77;;
35777;SDS011;21899;42.662;23.316;2022-09-09T02:53:15;20.42;;;13.73;;
35777;SDS011;21899;42.662;23.316;2022-09-09T02:56:13;15.57;;;12.82;;
35777;SDS011;21899;42.662;23.316;2022-09-09T02:58:41;20.40;;;13.68;;
35777;SDS011;21899;42.662;23.316;2022-09-09T03:01:07;18.67;;;12.82;;
35777;SDS011;21899;42.662;23.316;2022-09-09T03:03:33;20.65;;;13.80;;
35777;SDS011;21899;42.662;23.316;2022-09-09T03:06:00;17.60;;;13.38;;
35777;SDS011;21899;42.662;23.316;2022-09-09T03:08:25;20.48;;;14.90;;
35777;SDS011;21899;42.662;23.316;2022-09-09T03:10:53;17.00;;;13.40;;
35777;SDS011;21899;42.662;23.316;2022-09-09T03:13:20;20.50;;;15.18;;
35777;SDS011;21899;42.662;23.316;2022-09-09T03:15:45;19.80;;;14.73;;
35777;SDS011;21899;42.662;23.316;2022-09-09T03:18:13;17.73;;;13.88;;
35777;SDS011;21899;42.662;23.316;2022-09-09T03:20:39;18.10;;;14.68;;
35777;SDS011;21899;42.662;23.316;2022-09-09T03:23:07;20.75;;;14.75;;
35777;SDS011;21899;42.662;23.316;2022-09-09T03:25:32;18.30;;;14.70;;
35777;SDS011;21899;42.662;23.316;2022-09-09T03:27:58;22.17;;;14.85;;
35777;SDS011;21899;42.662;23.316;2022-09-09T03:30:24;17.38;;;13.55;;
35777;SDS011;21899;42.662;23.316;2022-09-09T03:32:51;21.33;;;14.90;;
35777;SDS011;21899;42.662;23.316;2022-09-09T03:35:17;20.70;;;15.20;;
35777;SDS011;21899;42.662;23.316;2022-09-09T03:37:43;20.17;;;15.48;;
35777;SDS011;21899;42.662;23.316;2022-09-09T03:40:09;18.88;;;13.55;;
35777;SDS011;21899;42.662;23.316;2022-09-09T03:42:35;18.05;;;13.85;;
35777;SDS011;21899;42.662;23.316;2022-09-09T03:45:02;22.05;;;15.35;;
35777;SDS011;21899;42.662;23.316;2022-09-09T03:47:29;18.17;;;14.32;;
35777;SDS011;21899;42.662;23.316;2022-09-09T03:49:54;29.42;;;18.13;;
35777;SDS011;21899;42.662;23.316;2022-09-09T03:52:20;26.73;;;17.20;;
35777;SDS011;21899;42.662;23.316;2022-09-09T03:54:46;25.38;;;17.70;;
35777;SDS011;21899;42.662;23.316;2022-09-09T03:57:12;23.80;;;16.88;;
35777;SDS011;21899;42.662;23.316;2022-09-09T03:59:41;22.98;;;16.77;;
35777;SDS011;21899;42.662;23.316;2022-09-09T04:02:07;19.92;;;14.85;;
35777;SDS011;21899;42.662;23.316;2022-09-09T04:04:32;22.02;;;17.10;;
35777;SDS011;21899;42.662;23.316;2022-09-09T04:06:58;25.48;;;15.38;;
35777;SDS011;21899;42.662;23.316;2022-09-09T04:09:23;21.40;;;16.00;;
35777;SDS011;21899;42.662;23.316;2022-09-09T04:11:48;26.75;;;16.35;;
35777;SDS011;21899;42.662;23.316;2022-09-09T04:14:14;21.23;;;15.60;;
35777;SDS011;21899;42.662;23.316;2022-09-09T04:16:40;28.55;;;14.82;;
35777;SDS011;21899;42.662;23.316;2022-09-09T04:19:09;20.00;;;15.38;;
35777;SDS011;21899;42.662;23.316;2022-09-09T04:21:38;24.55;;;15.75;;
35777;SDS011;21899;42.662;23.316;2022-09-09T04:24:05;22.70;;;15.23;;
35777;SDS011;21899;42.662;23.316;2022-09-09T04:26:31;22.80;;;15.18;;
35777;SDS011;21899;42.662;23.316;2022-09-09T04:28:57;20.67;;;15.00;;
35777;SDS011;21899;42.662;23.316;2022-09-09T04:31:22;22.85;;;14.77;;
35777;SDS011;21899;42.662;23.316;2022-09-09T04:33:51;20.27;;;14.70;;
35777;SDS011;21899;42.662;23.316;2022-09-09T04:36:17;24.85;;;16.25;;
35777;SDS011;21899;42.662;23.316;2022-09-09T04:38:44;29.55;;;14.75;;
35777;SDS011;21899;42.662;23.316;2022-09-09T04:41:10;24.10;;;14.73;;
35777;SDS011;21899;42.662;23.316;2022-09-09T04:43:37;24.08;;;15.20;;
35777;SDS011;21899;42.662;23.316;2022-09-09T04:46:03;28.08;;;15.82;;
35777;SDS011;21899;42.662;23.316;2022-09-09T04:48:29;19.70;;;14.75;;
35777;SDS011;21899;42.662;23.316;2022-09-09T04:53:26;21.75;;;14.65;;
35777;SDS011;21899;42.662;23.316;2022-09-09T04:56:14;21.80;;;14.52;;
35777;SDS011;21899;42.662;23.316;2022-09-09T04:58:39;28.35;;;19.98;;
35777;SDS011;21899;42.662;23.316;2022-09-09T05:01:26;30.02;;;18.45;;
35777;SDS011;21899;42.662;23.316;2022-09-09T05:06:19;30.70;;;17.25;;
35777;SDS011;21899;42.662;23.316;2022-09-09T05:08:45;26.95;;;17.17;;
35777;SDS011;21899;42.662;23.316;2022-09-09T05:11:21;31.33;;;18.25;;
35777;SDS011;21899;42.662;23.316;2022-09-09T05:13:49;26.00;;;17.55;;
35777;SDS011;21899;42.662;23.316;2022-09-09T05:16:15;28.48;;;15.88;;
35777;SDS011;21899;42.662;23.316;2022-09-09T05:18:42;32.95;;;16.98;;
35777;SDS011;21899;42.662;23.316;2022-09-09T05:21:09;27.33;;;16.17;;
35777;SDS011;21899;42.662;23.316;2022-09-09T05:23:35;28.92;;;17.27;;
35777;SDS011;21899;42.662;23.316;2022-09-09T05:26:01;25.27;;;17.75;;
35777;SDS011;21899;42.662;23.316;2022-09-09T05:28:27;22.58;;;16.23;;
35777;SDS011;21899;42.662;23.316;2022-09-09T05:33:24;20.35;;;15.65;;
35777;SDS011;21899;42.662;23.316;2022-09-09T05:35:57;22.13;;;15.35;;
35777;SDS011;21899;42.662;23.316;2022-09-09T05:38:24;21.15;;;15.20;;
35777;SDS011;21899;42.662;23.316;2022-09-09T05:40:50;17.05;;;14.65;;
35777;SDS011;21899;42.662;23.316;2022-09-09T05:43:17;15.85;;;14.15;;
35777;SDS011;21899;42.662;23.316;2022-09-09T05:45:48;19.85;;;14.15;;
35777;SDS011;21899;42.662;23.316;2022-09-09T05:48:27;17.48;;;12.98;;
35777;SDS011;21899;42.662;23.316;2022-09-09T05:50:53;18.92;;;13.63;;
35777;SDS011;21899;42.662;23.316;2022-09-09T05:53:19;14.88;;;11.63;;
35777;SDS011;21899;42.662;23.316;2022-09-09T05:55:45;14.60;;;11.60;;
35777;SDS011;21899;42.662;23.316;2022-09-09T05:58:10;13.68;;;10.82;;
35777;SDS011;21899;42.662;23.316;2022-09-09T06:00:36;14.73;;;10.85;;
35777;SDS011;21899;42.662;23.316;2022-09-09T06:03:02;14.88;;;9.93;;
35777;SDS011;21899;42.662;23.316;2022-09-09T06:05:29;13.65;;;10.10;;
35777;SDS011;21899;42.662;23.316;2022-09-09T06:07:55;14.23;;;9.63;;
35777;SDS011;21899;42.662;23.316;2022-09-09T06:10:21;12.27;;;9.75;;
35777;SDS011;21899;42.662;23.316;2022-09-09T06:12:46;14.68;;;10.32;;
35777;SDS011;21899;42.662;23.316;2022-09-09T06:15:12;12.02;;;9.02;;
35777;SDS011;21899;42.662;23.316;2022-09-09T06:17:37;16.80;;;11.02;;
35777;SDS011;21899;42.662;23.316;2022-09-09T06:20:03;16.75;;;13.23;;
35777;SDS011;21899;42.662;23.316;2022-09-09T06:22:30;19.73;;;13.23;;
35777;SDS011;21899;42.662;23.316;2022-09-09T06:24:55;15.25;;;11.95;;
35777;SDS011;21899;42.662;23.316;2022-09-09T06:27:20;20.90;;;13.15;;
35777;SDS011;21899;42.662;23.316;2022-09-09T06:29:46;19.95;;;12.13;;
35777;SDS011;21899;42.662;23.316;2022-09-09T06:32:11;17.60;;;12.43;;
35777;SDS011;21899;42.662;23.316;2022-09-09T06:34:37;18.45;;;11.98;;
35777;SDS011;21899;42.662;23.316;2022-09-09T06:37:02;16.13;;;11.25;;
35777;SDS011;21899;42.662;23.316;2022-09-09T06:39:28;15.48;;;10.90;;
35777;SDS011;21899;42.662;23.316;2022-09-09T06:41:53;18.35;;;10.13;;
35777;SDS011;21899;42.662;23.316;2022-09-09T06:44:19;15.43;;;10.48;;
35777;SDS011;21899;42.662;23.316;2022-09-09T06:46:45;12.07;;;9.23;;
35777;SDS011;21899;42.662;23.316;2022-09-09T06:49:13;13.57;;;8.98;;
35777;SDS011;21899;42.662;23.316;2022-09-09T06:51:39;15.43;;;10.05;;
35777;SDS011;21899;42.662;23.316;2022-09-09T06:54:11;13.02;;;9.98;;
35777;SDS011;21899;42.662;23.316;2022-09-09T06:56:38;15.13;;;10.35;;
35777;SDS011;21899;42.662;23.316;2022-09-09T06:59:07;17.17;;;10.13;;
35777;SDS011;21899;42.662;23.316;2022-09-09T07:01:38;14.93;;;9.38;;
35777;SDS011;21899;42.662;23.316;2022-09-09T07:04:05;13.18;;;10.50;;
35777;SDS011;21899;42.662;23.316;2022-09-09T07:06:44;19.20;;;10.65;;
35777;SDS011;21899;42.662;23.316;2022-09-09T07:09:12;14.23;;;10.30;;
35777;SDS011;21899;42.662;23.316;2022-09-09T07:11:43;17.45;;;9.82;;
35777;SDS011;21899;42.662;23.316;2022-09-09T07:14:11;13.90;;;10.15;;
35777;SDS011;21899;42.662;23.316;2022-09-09T07:16:39;16.27;;;9.98;;
35777;SDS011;21899;42.662;23.316;2022-09-09T07:19:07;14.90;;;9.25;;
35777;SDS011;21899;42.662;23.316;2022-09-09T07:21:33;14.70;;;9.75;;
35777;SDS011;21899;42.662;23.316;2022-09-09T07:23:59;17.33;;;10.15;;
35777;SDS011;21899;42.662;23.316;2022-09-09T07:26:26;15.00;;;10.27;;
35777;SDS011;21899;42.662;23.316;2022-09-09T07:28:53;14.77;;;9.30;;
35777;SDS011;21899;42.662;23.316;2022-09-09T07:31:22;12.55;;;9.63;;
35777;SDS011;21899;42.662;23.316;2022-09-09T07:33:51;13.93;;;9.90;;
35777;SDS011;21899;42.662;23.316;2022-09-09T07:36:24;10.57;;;8.80;;
35777;SDS011;21899;42.662;23.316;2022-09-09T07:38:58;12.15;;;9.18;;
35777;SDS011;21899;42.662;23.316;2022-09-09T07:41:29;13.57;;;9.25;;
35777;SDS011;21899;42.662;23.316;2022-09-09T07:44:06;12.65;;;9.27;;
35777;SDS011;21899;42.662;23.316;2022-09-09T07:46:33;17.67;;;9.57;;
35777;SDS011;21899;42.662;23.316;2022-09-09T07:48:59;14.75;;;9.52;;
35777;SDS011;21899;42.662;23.316;2022-09-09T07:51:27;16.08;;;9.63;;
35777;SDS011;21899;42.662;23.316;2022-09-09T07:53:56;17.42;;;9.27;;
35777;SDS011;21899;42.662;23.316;2022-09-09T07:56:23;15.05;;;8.77;;
35777;SDS011;21899;42.662;23.316;2022-09-09T07:58:50;14.65;;;8.75;;
35777;SDS011;21899;42.662;23.316;2022-09-09T08:01:18;15.05;;;9.10;;
35777;SDS011;21899;42.662;23.316;2022-09-09T08:04:02;12.05;;;8.43;;
35777;SDS011;21899;42.662;23.316;2022-09-09T08:06:32;13.50;;;8.43;;
35777;SDS011;21899;42.662;23.316;2022-09-09T08:09:00;11.85;;;8.15;;
35777;SDS011;21899;42.662;23.316;2022-09-09T08:11:26;11.95;;;8.25;;
35777;SDS011;21899;42.662;23.316;2022-09-09T08:13:53;14.00;;;8.70;;
35777;SDS011;21899;42.662;23.316;2022-09-09T08:16:23;15.82;;;8.82;;
35777;SDS011;21899;42.662;23.316;2022-09-09T08:18:51;14.57;;;8.70;;
35777;SDS011;21899;42.662;23.316;2022-09-09T08:21:19;10.25;;;7.93;;
35777;SDS011;21899;42.662;23.316;2022-09-09T08:23:49;12.68;;;8.75;;
35777;SDS011;21899;42.662;23.316;2022-09-09T08:26:21;11.18;;;7.75;;
35777;SDS011;21899;42.662;23.316;2022-09-09T08:28:52;15.15;;;7.80;;
35777;SDS011;21899;42.662;23.316;2022-09-09T08:31:23;11.52;;;7.78;;
35777;SDS011;21899;42.662;23.316;2022-09-09T08:33:49;10.30;;;7.70;;
35777;SDS011;21899;42.662;23.316;2022-09-09T08:36:15;12.35;;;7.82;;
35777;SDS011;21899;42.662;23.316;2022-09-09T08:38:47;13.15;;;7.40;;
35777;SDS011;21899;42.662;23.316;2022-09-09T08:41:22;13.77;;;7.20;;
35777;SDS011;21899;42.662;23.316;2022-09-09T08:47:05;8.77;;;6.10;;
35777;SDS011;21899;42.662;23.316;2022-09-09T08:49:58;9.88;;;6.28;;
35777;SDS011;21899;42.662;23.316;2022-09-09T08:53:03;16.17;;;7.15;;
35777;SDS011;21899;42.662;23.316;2022-09-09T08:58:14;10.63;;;6.50;;
35777;SDS011;21899;42.662;23.316;2022-09-09T09:00:52;7.88;;;6.05;;
35777;SDS011;21899;42.662;23.316;2022-09-09T09:12:01;12.65;;;6.70;;
35777;SDS011;21899;42.662;23.316;2022-09-09T09:14:33;12.43;;;7.05;;
35777;SDS011;21899;42.662;23.316;2022-09-09T09:17:02;8.60;;;6.25;;
35777;SDS011;21899;42.662;23.316;2022-09-09T09:19:40;11.75;;;6.88;;
35777;SDS011;21899;42.662;23.316;2022-09-09T09:22:30;7.57;;;6.28;;
35777;SDS011;21899;42.662;23.316;2022-09-09T09:25:15;9.60;;;6.70;;
35777;SDS011;21899;42.662;23.316;2022-09-09T09:30:24;10.15;;;6.53;;
35777;SDS011;21899;42.662;23.316;2022-09-09T09:35:42;13.05;;;7.07;;
35777;SDS011;21899;42.662;23.316;2022-09-09T09:38:17;9.32;;;6.35;;
35777;SDS011;21899;42.662;23.316;2022-09-09T09:40:48;8.07;;;6.15;;
35777;SDS011;21899;42.662;23.316;2022-09-09T09:45:54;10.57;;;7.00;;
35777;SDS011;21899;42.662;23.316;2022-09-09T09:48:20;9.68;;;6.50;;
35777;SDS011;21899;42.662;23.316;2022-09-09T09:50:46;12.02;;;6.38;;
35777;SDS011;21899;42.662;23.316;2022-09-09T09:53:18;8.73;;;6.32;;
35777;SDS011;21899;42.662;23.316;2022-09-09T09:56:09;11.90;;;7.78;;
35777;SDS011;21899;42.662;23.316;2022-09-09T10:01:24;12.70;;;7.10;;
35777;SDS011;21899;42.662;23.316;2022-09-09T10:04:12;11.55;;;6.45;;
35777;SDS011;21899;42.662;23.316;2022-09-09T10:06:43;11.85;;;6.65;;
35777;SDS011;21899;42.662;23.316;2022-09-09T10:33:49;11.02;;;6.85;;
35777;SDS011;21899;42.662;23.316;2022-09-09T10:38:46;10.95;;;6.65;;
35777;SDS011;21899;42.662;23.316;2022-09-09T10:54:59;11.70;;;7.20;;
35777;SDS011;21899;42.662;23.316;2022-09-09T10:57:36;12.95;;;6.97;;
35777;SDS011;21899;42.662;23.316;2022-09-09T11:00:04;10.95;;;7.65;;
35777;SDS011;21899;42.662;23.316;2022-09-09T11:02:33;11.35;;;7.25;;
35777;SDS011;21899;42.662;23.316;2022-09-09T11:05:02;10.40;;;7.32;;
35777;SDS011;21899;42.662;23.316;2022-09-09T11:07:46;13.80;;;7.90;;
35777;SDS011;21899;42.662;23.316;2022-09-09T11:13:42;15.05;;;7.95;;
35777;SDS011;21899;42.662;23.316;2022-09-09T11:16:25;11.63;;;8.30;;
35777;SDS011;21899;42.662;23.316;2022-09-09T11:19:03;18.50;;;8.98;;
35777;SDS011;21899;42.662;23.316;2022-09-09T11:21:44;13.30;;;8.48;;
35777;SDS011;21899;42.662;23.316;2022-09-09T11:24:13;12.82;;;8.57;;
35777;SDS011;21899;42.662;23.316;2022-09-09T11:26:47;12.90;;;9.10;;
35777;SDS011;21899;42.662;23.316;2022-09-09T11:35:25;14.15;;;8.68;;
35777;SDS011;21899;42.662;23.316;2022-09-09T11:40:56;14.85;;;8.90;;
35777;SDS011;21899;42.662;23.316;2022-09-09T11:43:38;13.90;;;8.93;;
35777;SDS011;21899;42.662;23.316;2022-09-09T11:46:07;10.02;;;8.80;;
35777;SDS011;21899;42.662;23.316;2022-09-09T11:48:35;15.93;;;8.77;;
35777;SDS011;21899;42.662;23.316;2022-09-09T11:53:56;12.60;;;8.95;;
35777;SDS011;21899;42.662;23.316;2022-09-09T11:56:30;19.27;;;10.25;;
35777;SDS011;21899;42.662;23.316;2022-09-09T11:59:06;13.27;;;8.88;;
35777;SDS011;21899;42.662;23.316;2022-09-09T12:01:49;11.82;;;8.35;;
35777;SDS011;21899;42.662;23.316;2022-09-09T12:12:24;13.02;;;8.48;;
35777;SDS011;21899;42.662;23.316;2022-09-09T12:15:34;18.63;;;9.25;;
35777;SDS011;21899;42.662;23.316;2022-09-09T12:17:44;13.32;;;8.45;;
35777;SDS011;21899;42.662;23.316;2022-09-09T12:20:19;14.55;;;8.82;;
35777;SDS011;21899;42.662;23.316;2022-09-09T12:28:20;13.85;;;8.65;;
35777;SDS011;21899;42.662;23.316;2022-09-09T12:31:08;13.18;;;8.73;;
35777;SDS011;21899;42.662;23.316;2022-09-09T12:33:36;17.73;;;8.77;;
35777;SDS011;21899;42.662;23.316;2022-09-09T12:36:08;15.95;;;8.77;;
35777;SDS011;21899;42.662;23.316;2022-09-09T12:38:39;17.42;;;8.60;;
35777;SDS011;21899;42.662;23.316;2022-09-09T12:41:05;12.80;;;8.07;;
35777;SDS011;21899;42.662;23.316;2022-09-09T12:43:44;11.70;;;8.52;;
35777;SDS011;21899;42.662;23.316;2022-09-09T12:46:12;13.25;;;8.35;;
35777;SDS011;21899;42.662;23.316;2022-09-09T12:49:01;13.52;;;8.68;;
35777;SDS011;21899;42.662;23.316;2022-09-09T12:51:28;10.45;;;8.60;;
35777;SDS011;21899;42.662;23.316;2022-09-09T12:53:56;16.08;;;8.85;;
35777;SDS011;21899;42.662;23.316;2022-09-09T12:56:32;16.48;;;8.48;;
35777;SDS011;21899;42.662;23.316;2022-09-09T12:58:59;18.20;;;9.27;;
35777;SDS011;21899;42.662;23.316;2022-09-09T13:03:53;12.57;;;8.15;;
35777;SDS011;21899;42.662;23.316;2022-09-09T13:06:20;13.32;;;9.20;;
35777;SDS011;21899;42.662;23.316;2022-09-09T13:08:54;18.40;;;9.18;;
35777;SDS011;21899;42.662;23.316;2022-09-09T13:11:31;13.57;;;9.15;;
35777;SDS011;21899;42.662;23.316;2022-09-09T13:14:12;18.67;;;9.40;;
35777;SDS011;21899;42.662;23.316;2022-09-09T13:16:43;17.75;;;8.27;;
35777;SDS011;21899;42.662;23.316;2022-09-09T13:19:19;19.50;;;9.70;;
35777;SDS011;21899;42.662;23.316;2022-09-09T13:21:46;16.67;;;9.57;;
35777;SDS011;21899;42.662;23.316;2022-09-09T13:29:53;12.35;;;8.57;;
35777;SDS011;21899;42.662;23.316;2022-09-09T13:32:22;14.15;;;9.02;;
35777;SDS011;21899;42.662;23.316;2022-09-09T13:34:55;16.42;;;9.55;;
35777;SDS011;21899;42.662;23.316;2022-09-09T13:40:01;15.05;;;8.63;;
35777;SDS011;21899;42.662;23.316;2022-09-09T13:42:30;16.35;;;8.48;;
35777;SDS011;21899;42.662;23.316;2022-09-09T13:45:00;11.27;;;8.30;;
35777;SDS011;21899;42.662;23.316;2022-09-09T13:47:36;11.98;;;7.55;;
35777;SDS011;21899;42.662;23.316;2022-09-09T13:52:52;13.65;;;9.73;;
35777;SDS011;21899;42.662;23.316;2022-09-09T13:55:23;12.95;;;8.80;;
35777;SDS011;21899;42.662;23.316;2022-09-09T13:57:55;13.38;;;8.13;;
35777;SDS011;21899;42.662;23.316;2022-09-09T14:00:23;16.15;;;8.38;;
35777;SDS011;21899;42.662;23.316;2022-09-09T14:02:52;17.30;;;9.25;;
35777;SDS011;21899;42.662;23.316;2022-09-09T14:05:19;16.30;;;8.55;;
35777;SDS011;21899;42.662;23.316;2022-09-09T14:07:47;12.82;;;8.43;;
35777;SDS011;21899;42.662;23.316;2022-09-09T14:10:13;12.38;;;8.20;;
35777;SDS011;21899;42.662;23.316;2022-09-09T14:12:39;17.88;;;9.55;;
35777;SDS011;21899;42.662;23.316;2022-09-09T14:15:05;12.40;;;8.52;;
35777;SDS011;21899;42.662;23.316;2022-09-09T14:17:32;15.15;;;8.55;;
35777;SDS011;21899;42.662;23.316;2022-09-09T14:19:58;14.27;;;9.23;;
35777;SDS011;21899;42.662;23.316;2022-09-09T14:22:23;17.02;;;8.60;;
35777;SDS011;21899;42.662;23.316;2022-09-09T14:24:50;12.63;;;8.75;;
35777;SDS011;21899;42.662;23.316;2022-09-09T14:27:16;18.67;;;8.52;;
35777;SDS011;21899;42.662;23.316;2022-09-09T14:29:42;17.10;;;9.00;;
35777;SDS011;21899;42.662;23.316;2022-09-09T14:32:09;14.27;;;8.80;;
35777;SDS011;21899;42.662;23.316;2022-09-09T14:34:35;17.75;;;9.15;;
35777;SDS011;21899;42.662;23.316;2022-09-09T14:37:00;17.05;;;9.15;;
35777;SDS011;21899;42.662;23.316;2022-09-09T14:39:26;14.38;;;8.23;;
35777;SDS011;21899;42.662;23.316;2022-09-09T14:41:51;13.73;;;8.30;;
35777;SDS011;21899;42.662;23.316;2022-09-09T14:44:17;15.13;;;9.02;;
35777;SDS011;21899;42.662;23.316;2022-09-09T14:46:43;10.30;;;8.50;;
35777;SDS011;21899;42.662;23.316;2022-09-09T14:49:09;17.13;;;8.48;;
35777;SDS011;21899;42.662;23.316;2022-09-09T14:51:38;11.60;;;8.30;;
35777;SDS011;21899;42.662;23.316;2022-09-09T14:54:04;11.25;;;8.20;;
35777;SDS011;21899;42.662;23.316;2022-09-09T14:56:31;17.63;;;9.32;;
35777;SDS011;21899;42.662;23.316;2022-09-09T14:58:59;12.57;;;9.23;;
35777;SDS011;21899;42.662;23.316;2022-09-09T15:01:29;13.43;;;8.38;;
35777;SDS011;21899;42.662;23.316;2022-09-09T15:03:57;14.00;;;8.63;;
35777;SDS011;21899;42.662;23.316;2022-09-09T15:06:25;14.00;;;8.15;;
35777;SDS011;21899;42.662;23.316;2022-09-09T15:08:54;12.85;;;7.70;;
35777;SDS011;21899;42.662;23.316;2022-09-09T15:11:23;16.60;;;7.57;;
35777;SDS011;21899;42.662;23.316;2022-09-09T15:13:51;19.85;;;8.75;;
35777;SDS011;21899;42.662;23.316;2022-09-09T15:16:18;14.55;;;9.48;;
35777;SDS011;21899;42.662;23.316;2022-09-09T15:18:45;13.10;;;8.23;;
35777;SDS011;21899;42.662;23.316;2022-09-09T15:21:12;15.88;;;9.27;;
35777;SDS011;21899;42.662;23.316;2022-09-09T15:23:40;12.40;;;8.50;;
35777;SDS011;21899;42.662;23.316;2022-09-09T15:26:06;15.95;;;8.32;;
35777;SDS011;21899;42.662;23.316;2022-09-09T15:28:33;14.35;;;8.63;;
35777;SDS011;21899;42.662;23.316;2022-09-09T15:31:25;14.35;;;8.35;;
35777;SDS011;21899;42.662;23.316;2022-09-09T15:33:50;17.65;;;8.98;;
35777;SDS011;21899;42.662;23.316;2022-09-09T15:38:44;19.90;;;9.60;;
35777;SDS011;21899;42.662;23.316;2022-09-09T15:41:11;14.38;;;8.52;;
35777;SDS011;21899;42.662;23.316;2022-09-09T15:43:37;27.85;;;9.68;;
35777;SDS011;21899;42.662;23.316;2022-09-09T15:48:41;25.73;;;9.90;;
35777;SDS011;21899;42.662;23.316;2022-09-09T15:51:07;20.42;;;9.02;;
35777;SDS011;21899;42.662;23.316;2022-09-09T15:53:34;18.75;;;9.95;;
35777;SDS011;21899;42.662;23.316;2022-09-09T15:56:00;14.38;;;9.00;;
35777;SDS011;21899;42.662;23.316;2022-09-09T15:58:29;18.40;;;9.50;;
35777;SDS011;21899;42.662;23.316;2022-09-09T16:01:01;17.60;;;9.25;;
35777;SDS011;21899;42.662;23.316;2022-09-09T16:03:34;17.27;;;9.82;;
35777;SDS011;21899;42.662;23.316;2022-09-09T16:06:00;16.77;;;8.93;;
35777;SDS011;21899;42.662;23.316;2022-09-09T16:08:35;18.48;;;9.95;;
35777;SDS011;21899;42.662;23.316;2022-09-09T16:13:35;18.65;;;11.35;;
35777;SDS011;21899;42.662;23.316;2022-09-09T16:16:01;19.23;;;10.48;;
35777;SDS011;21899;42.662;23.316;2022-09-09T16:18:33;22.88;;;9.95;;
35777;SDS011;21899;42.662;23.316;2022-09-09T16:21:00;21.15;;;10.18;;
35777;SDS011;21899;42.662;23.316;2022-09-09T16:23:26;19.25;;;10.23;;
35777;SDS011;21899;42.662;23.316;2022-09-09T16:25:55;24.55;;;12.45;;
35777;SDS011;21899;42.662;23.316;2022-09-09T16:28:20;23.05;;;12.10;;
35777;SDS011;21899;42.662;23.316;2022-09-09T16:30:47;15.75;;;10.77;;
35777;SDS011;21899;42.662;23.316;2022-09-09T16:33:12;16.38;;;11.10;;
35777;SDS011;21899;42.662;23.316;2022-09-09T16:35:39;21.33;;;11.48;;
35777;SDS011;21899;42.662;23.316;2022-09-09T16:38:05;14.13;;;10.07;;
35777;SDS011;21899;42.662;23.316;2022-09-09T16:40:33;23.15;;;10.68;;
35777;SDS011;21899;42.662;23.316;2022-09-09T16:43:03;21.02;;;12.20;;
35777;SDS011;21899;42.662;23.316;2022-09-09T16:45:29;17.85;;;10.93;;
35777;SDS011;21899;42.662;23.316;2022-09-09T16:47:55;18.83;;;10.98;;
35777;SDS011;21899;42.662;23.316;2022-09-09T16:50:21;15.90;;;11.20;;
35777;SDS011;21899;42.662;23.316;2022-09-09T16:52:47;22.00;;;11.43;;
35777;SDS011;21899;42.662;23.316;2022-09-09T16:55:12;22.42;;;11.00;;
35777;SDS011;21899;42.662;23.316;2022-09-09T16:57:37;22.55;;;12.82;;
35777;SDS011;21899;42.662;23.316;2022-09-09T17:00:03;24.05;;;11.23;;
35777;SDS011;21899;42.662;23.316;2022-09-09T17:02:31;18.50;;;12.05;;
35777;SDS011;21899;42.662;23.316;2022-09-09T17:04:56;24.75;;;11.93;;
35777;SDS011;21899;42.662;23.316;2022-09-09T17:07:22;19.73;;;10.40;;
35777;SDS011;21899;42.662;23.316;2022-09-09T17:09:48;18.67;;;10.68;;
35777;SDS011;21899;42.662;23.316;2022-09-09T17:12:13;16.17;;;10.70;;
35777;SDS011;21899;42.662;23.316;2022-09-09T17:14:39;20.30;;;12.60;;
35777;SDS011;21899;42.662;23.316;2022-09-09T17:17:04;18.02;;;11.60;;